Latest METARs, TAFs and NOTAMs for SABE


---------------------------------------------------------------------------
	(OBSERVATIONS)
SABE 231400Z 04007KT CAVOK 15/09 Q1020=
SABE 231300Z 05008KT CAVOK 15/08 Q1021=
SABE 231200Z 03008KT CAVOK 14/08 Q1021=
---------------------------------------------------------------------------
	(TERMINAL AREA FORECAST)
SABE 231100Z 2312/2412 05010KT CAVOK TX21/2318Z TN14/2312Z
    BECMG 2321/2323 09010KT
    BECMG 2402/2404 07015KT
    BECMG 2408/2410 36010KT=
---------------------------------------------------------------------------
	(NOTAMS)


SABE A1100/17 ON COMMERCIAL APN, PSN N 4, 5, 6, 8, 18 AND 29,
    ALSO ALLOW ACFT A-321. PSN 23 AND 25 ALSO ALLOW ACFT ATR-72
    CHANGES AIP VOL. III AIRCRAFT PARKING AND BERTHING DIAGRAM
    ON COMMERCIAL APRON IN TAXI STANDARDS, MOVEMENT AND PARKING
    IN AMDT AIRAC 2/16. 23 FEB 17:33 2017 UNTIL PERM. CREATED:
    23 FEB 17:37 2017

SABE A1700/17 AS OF MARCH-01-2010 BUENOS AIRES/AEROPARQUE J.
    NEWBERY AERODROME BECOMES PERMANENTLY INTERNATIONAL FOR FLIGHTS
    BELONGING TO AEROLINEAS ARGENTINAS COMPANY COMING FROM OR
    WITH FINAL DESTINATION TO THE FEDERATIVE REPUBLIC BRAZIL,
    REPUBLIC OF PARAGUAY AND REPUBLIC OF CHILE, IN ACCORDANCE
    WTIH ANAC RESOLUTION 264 FROM JAN-21-2010. 25 MAR 12:14 2017
    UNTIL PERM. CREATED: 25 MAR 12:18 2017

SABE A1701/17 AD TIME EXTENSION FOR POTENCIAL TEST MAXIMUM MOTORS
    NOT SUPERIOR TO 60 PERCENT AND 70 DB OF 0900-1100 AND 0100-0200.
    25 MAR 12:19 2017 UNTIL PERM. CREATED: 25 MAR 12:22 2017

SABE A2459/15 IN ORDER TO ENHACE THE AIRSPACE USE RADAR ASSISTANCE
    IS PROVIDED FOR INSTRUMENT APROACHES INSIDE AEROPARQUE CTR
    TO KEEP IN SEQUENCE APPROACH TRAFFIC UNDER SURVEILLANCE THIS
    RADAR ASSITANCE DOES NOT MEAN RADDAR APPROACH CONROL SERVICE.
    14 MAY 17:50 2015 UNTIL PERM. CREATED: 14 MAY 17:56 2015

SABE A2487/15 BY MEANS OF RESOLUTION NUMBER 1005/2013 FROM NOVEMBER
    5TH 2013 TANGO JET S.A (REGISTRATION MARKS: LV-AIW AND N70FL)
    AND MACAIR JET S.A AIR COMPANIES(REGISTRATION MARKS: LV-ZRL,
    LV-ZST, LV-ZPZ, LV-ZPW, LV-ZOW, LV-OEL AND LV-BPO) SHALL
    BE ABLE TO OPERATE FROM AND TO AEROPARQUE JORGE NEWBERY IN
    THE PERIOD OF TIME BETWEEN 0400 TO 0700 UTC OR, IN THE CASE
    OF, NOT HAVING THE CONFIGUTARION OF THAT AIR BASE OPERATIVE
    CAPACITY LIMIT. DLY 0400-0700, 15 MAY 03:59 2015 UNTIL PERM.
    CREATED: 15 MAY 04:03 2015

SABE A5919/17 CHART STAR RNP PAGON 7 R SAN ANTONIO 7 R ASADA
    7 R PAPIX 1R RWY 31 DATED ON 14 SEPTEMBER 2017 SUSPENDED.
    14 SEP 14:51 2017 UNTIL 14 DEC 03:00 2017. CREATED: 14 SEP
    15:02 2017

SABE A5920/17 CHART STAR RNP VALOS 8R BELGRANO 7 R TENIL 7 R
    SARGO 7 R RWY 31 DATED ON 14 SEPTEMBER 2017 SUSPENDED. 14
    SEP 15:02 2017 UNTIL 14 DEC 03:00 2017. CREATED: 14 SEP 15:05
    2017

SABE A5921/17 CHART RNP (LNAV /VNAV) RWY 31 DATED ON 14 SEPTEMBER
    2017 SUSPENDED. 14 SEP 15:09 2017 UNTIL 14 DEC 03:00 2017.
    CREATED: 14 SEP 15:12 2017

SABE A5968/16 IN AIP VOL II AD PART PAGE SABE AD 2.5 DATED ON
    OCTOBER 13TH 2016 AD 2.19 NAVIGATIONAL AND LANDING RADIO
    AIDS NDB/LI N AND NDB/LI P REVERSE COORDINATES INFORMATION
    FOR EACH ONE THE PUBLISHED INSTALLATIONS. 14 OCT 00:32 2016
    UNTIL PERM. CREATED: 14 OCT 00:39 2016

SABE A6302/17 IN AIRAC SUP 28/17 JULY 20TH EFFECTIVENESS DATE
    SEPTEMBER 14 2017 BUENOS AIRES AD / AEROPARQUE J NEWBERY
    SABE CODE TABLE STAR RNP VALOS 8R RWY 31 (VALO8R) TRANSITION
    VALOS 8R COLUMN WPT IDENTIF BE109 IN DIST (NM) WHERE IT READS
    28.9 IT MUST READ 44.7 WPT IDENTIF PTA WHERE IT READS 20.8
    IT MUST READ 32.4. 28 SEP 18:00 2017 UNTIL 07 DEC 00:00 2017.
    CREATED: 01 OCT 16:44 2017

SABE A6411/17 NDB/LO OP 260,0 KHZ RWY 13 U/S. 02 OCT 16:48 2017
    UNTIL 31 OCT 23:59 2017. CREATED: 02 OCT 16:59 2017

SABE A6855/17 ACFT STAND NR 5 CLSD WIP MAINT. 20 1200-2100, 23-27
    1200-2100, 20 OCT 12:00 2017 UNTIL 27 OCT 21:00 2017. CREATED:
    17 OCT 20:34 2017

SABE A6896/17 AD CLSD WIP MAINT. OCT 26,31 0430-0730, 26 OCT
    04:30 2017 UNTIL 31 OCT 07:30 2017. CREATED: 19 OCT 00:51
    2017

---------------------------------------------------------------------------